首页
METAR-TAF:

METAR-TAF

机场 :

干尼亞揚尼斯·達斯卡洛伊安尼斯國際機場

干尼亞, 克里特岛, 希腊

纬度: 35-29N, 经度: 024-07E, 海拔: 146米

当前天气观测

该预报发布于12分钟前的09:20 UTC
风速9节,风向北转西北
温度 15°C
湿度 67%
气压 1021 hPa
能见度10公里或以上
散云层高于3500英尺
多云层高于5000英尺

METAR: LGSA 140920Z 34009KT 9999 SCT035 BKN050 15/09 Q1021

时间: 11:32 (09:32 UTC)

预报

该预报发布于4小时和32分钟前的05:00 UTC
预报有效从14日的 06点(UTC)到 15日的 06点(UTC)
风速15节,风向
能见度10公里或以上
少量云层高于2000英尺
多云层高于3000英尺

TAF: LGSA 140500Z 1406/1506 36015KT 9999 FEW020 BKN030

超过4000个机场的气象观测和天气预报(METAR&TAF报告)。

可查询的气象台以黄色和红色小点在地图上表示。

将鼠标移到小点上方,可查看气象台名称。

然后点击查看天气观测和预报。

如需切换地图:点击带黑十字的绿色按钮放大地图;点击带横线的绿色按钮缩小地图;或者点击绿色箭头查看邻近地区的地图。


METAR-TAF: